createdAt,value
2016-03-04T00:00:16.572Z,13.41
2016-03-04T00:01:16.528Z,13.46
2016-03-04T00:02:16.516Z,13.41
2016-03-04T00:03:16.503Z,13.4
2016-03-04T00:04:16.474Z,13.33
2016-03-04T00:05:16.429Z,13.44
2016-03-04T00:06:16.495Z,13.44
2016-03-04T00:07:16.388Z,13.33
2016-03-04T00:08:16.376Z,13.36
2016-03-04T00:09:16.347Z,13.33
2016-03-04T00:10:16.319Z,13.38
2016-03-04T00:11:16.305Z,13.37
2016-03-04T00:12:16.259Z,13.33
2016-03-04T00:13:16.230Z,13.33
2016-03-04T00:14:16.217Z,13.3
2016-03-04T00:15:16.188Z,13.3
2016-03-04T00:16:16.160Z,13.38
2016-03-04T00:17:16.147Z,13.32
2016-03-04T00:18:16.118Z,13.25
2016-03-04T00:19:16.106Z,13.27
2016-03-04T00:20:16.076Z,13.29
2016-03-04T00:21:16.064Z,13.3
2016-03-04T00:22:16.020Z,13.38
2016-03-04T00:23:15.991Z,13.4
2016-03-04T00:24:15.978Z,13.22
2016-03-04T00:25:15.934Z,13.3
2016-03-04T00:26:15.922Z,13.27
2016-03-04T00:27:15.893Z,13.32
2016-03-04T00:28:16.113Z,13.3
2016-03-04T00:29:15.836Z,13.27
2016-03-04T00:30:15.838Z,13.3
2016-03-04T00:31:15.799Z,13.25
2016-03-04T00:32:15.790Z,13.24
2016-03-04T00:33:15.934Z,13.27
2016-03-04T00:34:15.718Z,13.25
2016-03-04T00:35:15.705Z,13.24
2016-03-04T00:36:15.661Z,13.24
2016-03-04T00:37:15.648Z,13.21
2016-03-04T00:38:15.650Z,13.24
2016-03-04T00:39:15.590Z,13.25
2016-03-04T00:40:15.563Z,13.22
2016-03-04T00:41:15.549Z,13.25
2016-03-04T00:42:15.537Z,13.24
2016-03-04T00:43:15.492Z,13.25
2016-03-04T00:44:15.464Z,13.24
2016-03-04T00:45:15.450Z,13.22
2016-03-04T00:46:15.422Z,13.27
2016-03-04T00:47:15.394Z,13.3
2016-03-04T00:48:15.365Z,13.2
2016-03-04T00:49:15.478Z,13.21
2016-03-04T00:50:15.323Z,13.21
2016-03-04T00:51:15.311Z,13.21
2016-03-04T00:52:15.266Z,13.22
2016-03-04T00:53:15.270Z,13.21
2016-03-04T00:54:15.225Z,13.22
2016-03-04T00:55:15.213Z,13.18
2016-03-04T00:56:15.184Z,13.18
2016-03-04T00:57:15.172Z,13.21
2016-03-04T00:58:15.127Z,13.15
2016-03-04T00:59:15.114Z,13.12
2016-03-04T01:00:15.086Z,13.15
2016-03-04T01:01:15.058Z,13.12
2016-03-04T01:02:15.013Z,13.15
2016-03-04T01:03:15.000Z,13.17
2016-03-04T01:04:14.972Z,13.2
2016-03-04T01:05:14.943Z,13.22
2016-03-04T01:06:14.931Z,13.12
2016-03-04T01:07:14.917Z,13.14
2016-03-04T01:08:15.358Z,13.15
2016-03-04T01:09:14.860Z,13.04
2016-03-04T01:10:14.832Z,13.18
2016-03-04T01:11:14.803Z,13.18
2016-03-04T01:12:14.791Z,13.21
2016-03-04T01:13:14.761Z,13.2
2016-03-04T01:14:14.764Z,13.18
2016-03-04T01:15:14.705Z,13.14
2016-03-04T01:16:14.676Z,13.11
2016-03-04T01:17:14.663Z,13.09
2016-03-04T01:18:14.635Z,13.09
2016-03-04T01:19:14.731Z,13.09
2016-03-04T01:20:14.576Z,13.11
2016-03-04T01:21:14.549Z,13.12
2016-03-04T01:22:14.520Z,13.11
2016-03-04T01:23:14.507Z,13.11
2016-03-04T01:24:14.494Z,13.09
2016-03-04T01:25:14.450Z,13.07
2016-03-04T01:26:14.421Z,13.09
2016-03-04T01:27:14.440Z,13.11
2016-03-04T01:28:14.380Z,13.07
2016-03-04T01:29:14.367Z,13.14
2016-03-04T01:30:14.620Z,13.07
2016-03-04T01:31:14.309Z,13.07
2016-03-04T01:32:14.359Z,13
2016-03-04T01:33:14.253Z,13.06
2016-03-04T01:34:14.225Z,13.04
2016-03-04T01:35:14.227Z,13.07
2016-03-04T01:36:14.167Z,13.09
2016-03-04T01:37:14.154Z,13.06
2016-03-04T01:38:14.110Z,12.96
2016-03-04T01:39:14.096Z,13.04
2016-03-04T01:40:14.084Z,13.03
2016-03-04T01:41:14.040Z,13.03
2016-03-04T01:42:14.027Z,13.06
2016-03-04T01:43:13.998Z,13.07
2016-03-04T01:44:14.016Z,13.03
2016-03-04T01:45:13.957Z,13.03
2016-03-04T01:46:13.929Z,13.07
2016-03-04T01:47:13.916Z,13.06
2016-03-04T01:48:13.871Z,13.06
2016-03-04T01:49:13.843Z,13.04
2016-03-04T01:50:13.830Z,12.99
2016-03-04T01:51:13.817Z,12.99
2016-03-04T01:52:13.772Z,13.04
2016-03-04T01:53:13.760Z,13.02
2016-03-04T01:54:13.716Z,13.07
2016-03-04T01:55:13.718Z,13.06
2016-03-04T01:56:13.673Z,13
2016-03-04T01:57:13.661Z,13.06
2016-03-04T01:58:13.632Z,13.03
2016-03-04T01:59:13.713Z,13.02
2016-03-04T02:00:13.575Z,13.06
2016-03-04T02:01:13.562Z,13.03
2016-03-04T02:02:13.518Z,13.06
2016-03-04T02:03:13.520Z,13.03
2016-03-04T02:04:13.478Z,13.06
2016-03-04T02:05:13.464Z,13
2016-03-04T02:06:13.419Z,13.06
2016-03-04T02:07:13.422Z,13.07
2016-03-04T02:08:13.377Z,12.96
2016-03-04T02:09:13.365Z,12.97
2016-03-04T02:10:13.383Z,13
2016-03-04T02:11:13.291Z,12.97
2016-03-04T02:12:13.279Z,13
2016-03-04T02:13:13.266Z,13.04
2016-03-04T02:14:13.284Z,13.04
2016-03-04T02:15:13.193Z,12.96
2016-03-04T02:16:13.384Z,12.93
2016-03-04T02:17:13.152Z,13.03
2016-03-04T02:18:13.123Z,12.89
2016-03-04T02:19:13.110Z,12.87
2016-03-04T02:20:13.082Z,12.96
2016-03-04T02:21:13.100Z,12.97
2016-03-04T02:22:13.025Z,12.93
2016-03-04T02:23:13.011Z,12.92
2016-03-04T02:24:12.983Z,12.92
2016-03-04T02:25:12.954Z,12.96
2016-03-04T02:26:12.926Z,12.99
2016-03-04T02:27:13.183Z,12.99
2016-03-04T02:28:12.874Z,12.99
2016-03-04T02:29:12.876Z,12.93
2016-03-04T02:30:12.816Z,12.88
2016-03-04T02:31:12.819Z,12.92
2016-03-04T02:32:12.619Z,12.93
2016-03-04T02:33:12.762Z,12.93
2016-03-04T02:34:12.733Z,12.93
2016-03-04T02:35:12.705Z,12.92
2016-03-04T02:36:12.692Z,12.92
2016-03-04T02:37:12.663Z,12.95
2016-03-04T02:38:12.635Z,12.92
2016-03-04T02:39:12.606Z,12.96
2016-03-04T02:40:12.593Z,12.95
2016-03-04T02:41:12.549Z,12.96
2016-03-04T02:42:12.551Z,12.92
2016-03-04T02:43:12.507Z,12.82
2016-03-04T02:44:12.510Z,12.88
2016-03-04T02:45:12.465Z,12.89
2016-03-04T02:46:12.437Z,12.82
2016-03-04T02:47:12.409Z,12.93
2016-03-04T02:48:12.395Z,12.89
2016-03-04T02:49:12.383Z,12.89
2016-03-04T02:50:12.323Z,12.89
2016-03-04T02:51:12.326Z,12.87
2016-03-04T02:52:12.281Z,12.97
2016-03-04T02:53:12.237Z,12.85
2016-03-04T02:54:12.239Z,12.93
2016-03-04T02:55:12.211Z,12.89
2016-03-04T02:56:12.183Z,12.92
2016-03-04T02:57:12.170Z,12.84
2016-03-04T02:58:12.126Z,12.89
2016-03-04T02:59:12.113Z,12.82
2016-03-04T03:00:12.069Z,12.96
2016-03-04T03:01:12.056Z,12.81
2016-03-04T03:02:12.044Z,12.97
2016-03-04T03:03:11.999Z,12.85
2016-03-04T03:04:11.971Z,12.84
2016-03-04T03:05:11.957Z,12.88
2016-03-04T03:06:11.929Z,12.87
2016-03-04T03:07:11.899Z,12.85
2016-03-04T03:08:11.871Z,12.88
2016-03-04T03:09:11.859Z,12.89
2016-03-04T03:10:11.815Z,12.87
2016-03-04T03:11:11.802Z,12.78
2016-03-04T03:12:11.773Z,12.89
2016-03-04T03:13:12.134Z,12.93
2016-03-04T03:14:11.731Z,12.84
2016-03-04T03:15:11.704Z,12.87
2016-03-04T03:16:11.674Z,12.84
2016-03-04T03:17:11.645Z,12.74
2016-03-04T03:18:11.679Z,12.82
2016-03-04T03:19:11.604Z,12.79
2016-03-04T03:20:11.575Z,12.84
2016-03-04T03:21:11.547Z,12.77
2016-03-04T03:22:11.565Z,12.75
2016-03-04T03:23:11.490Z,12.78
2016-03-04T03:24:11.477Z,12.84
2016-03-04T03:25:11.448Z,12.81
2016-03-04T03:26:11.435Z,12.77
2016-03-04T03:27:11.250Z,12.75
2016-03-04T03:28:11.364Z,12.75
2016-03-04T03:29:11.366Z,12.77
2016-03-04T03:30:11.322Z,12.75
2016-03-04T03:31:11.308Z,12.75
2016-03-04T03:32:11.280Z,12.71
2016-03-04T03:33:11.298Z,12.81
2016-03-04T03:34:11.222Z,12.77
2016-03-04T03:35:11.194Z,12.77
2016-03-04T03:36:11.166Z,12.78
2016-03-04T03:37:11.152Z,12.81
2016-03-04T03:38:11.124Z,12.74
2016-03-04T03:39:11.095Z,12.78
2016-03-04T03:40:11.082Z,12.75
2016-03-04T03:41:11.055Z,12.78
2016-03-04T03:42:11.026Z,12.78
2016-03-04T03:43:10.997Z,12.71
2016-03-04T03:44:10.984Z,12.75
2016-03-04T03:45:10.956Z,12.79
2016-03-04T03:46:10.926Z,12.79
2016-03-04T03:47:10.898Z,12.71
2016-03-04T03:48:10.870Z,12.74
2016-03-04T03:49:10.857Z,12.81
2016-03-04T03:50:10.813Z,12.74
2016-03-04T03:51:10.815Z,12.74
2016-03-04T03:52:10.786Z,12.7
2016-03-04T03:53:10.758Z,12.74
2016-03-04T03:54:10.715Z,12.71
2016-03-04T03:55:10.700Z,12.78
2016-03-04T03:56:10.672Z,12.78
2016-03-04T03:57:10.659Z,12.71
2016-03-04T03:58:10.631Z,12.7
2016-03-04T03:59:10.602Z,12.71
2016-03-04T04:00:10.589Z,12.75
2016-03-04T04:01:10.545Z,12.74
2016-03-04T04:02:10.532Z,12.77
2016-03-04T04:03:10.504Z,12.77
2016-03-04T04:04:10.475Z,12.78
2016-03-04T04:05:10.462Z,12.71
2016-03-04T04:06:10.433Z,12.71
2016-03-04T04:07:10.405Z,12.71
2016-03-04T04:08:10.377Z,12.64
2016-03-04T04:09:10.349Z,12.7
2016-03-04T04:10:10.382Z,12.7
2016-03-04T04:11:10.291Z,12.7
2016-03-04T04:12:10.293Z,12.69
2016-03-04T04:13:10.249Z,12.74
2016-03-04T04:14:10.236Z,12.74
2016-03-04T04:15:10.458Z,12.66
2016-03-04T04:16:10.180Z,12.74
2016-03-04T04:17:10.167Z,12.63
2016-03-04T04:18:10.154Z,12.69
2016-03-04T04:19:10.125Z,12.6
2016-03-04T04:20:10.159Z,12.66
2016-03-04T04:21:10.067Z,12.69
2016-03-04T04:22:10.024Z,12.63
2016-03-04T04:23:10.026Z,12.67
2016-03-04T04:24:09.982Z,12.71
2016-03-04T04:25:09.938Z,12.64
2016-03-04T04:26:09.941Z,12.63
2016-03-04T04:27:09.896Z,12.67
2016-03-04T04:28:09.884Z,12.6
2016-03-04T04:29:09.840Z,12.63
2016-03-04T04:30:09.811Z,12.66
2016-03-04T04:31:09.797Z,12.59
2016-03-04T04:32:09.785Z,12.64
2016-03-04T04:33:09.756Z,12.64
2016-03-04T04:34:09.712Z,12.66
2016-03-04T04:35:09.715Z,12.62
2016-03-04T04:36:09.671Z,12.52
2016-03-04T04:37:09.658Z,12.6
2016-03-04T04:38:09.660Z,12.69
2016-03-04T04:39:09.601Z,12.67
2016-03-04T04:40:09.587Z,12.67
2016-03-04T04:41:09.543Z,12.66
2016-03-04T04:42:09.530Z,12.66
2016-03-04T04:43:09.501Z,12.63
2016-03-04T04:44:09.458Z,12.62
2016-03-04T04:45:09.445Z,12.6
2016-03-04T04:46:09.432Z,12.64
2016-03-04T04:47:09.387Z,12.57
2016-03-04T04:48:09.376Z,12.59
2016-03-04T04:49:09.346Z,12.62
2016-03-04T04:50:09.334Z,12.62
2016-03-04T04:51:09.289Z,12.66
2016-03-04T04:52:09.261Z,12.6
2016-03-04T04:53:09.264Z,12.56
2016-03-04T04:54:09.385Z,12.54
2016-03-04T04:55:09.048Z,12.52
2016-03-04T04:56:10.568Z,12.56
2016-03-04T04:57:09.180Z,12.57
2016-03-04T04:58:09.119Z,12.54
2016-03-04T04:59:09.107Z,12.6
2016-03-04T05:00:09.109Z,12.57
2016-03-04T05:01:09.049Z,12.56
2016-03-04T05:02:09.036Z,12.54
2016-03-04T05:03:08.992Z,12.54
2016-03-04T05:04:08.980Z,12.59
2016-03-04T05:05:08.935Z,12.59
2016-03-04T05:06:09.001Z,12.59
2016-03-04T05:07:08.909Z,12.59
2016-03-04T05:08:08.865Z,12.57
2016-03-04T05:09:08.853Z,12.54
2016-03-04T05:10:08.809Z,12.57
2016-03-04T05:11:08.795Z,12.54
2016-03-04T05:12:08.767Z,12.52
2016-03-04T05:13:08.738Z,12.54
2016-03-04T05:14:08.725Z,12.59
2016-03-04T05:15:08.696Z,12.51
2016-03-04T05:16:08.653Z,12.51
2016-03-04T05:17:08.796Z,12.54
2016-03-04T05:18:08.611Z,12.59
2016-03-04T05:19:08.598Z,12.54
2016-03-04T05:20:08.553Z,12.6
2016-03-04T05:21:08.541Z,12.56
2016-03-04T05:22:08.513Z,12.54
2016-03-04T05:23:08.484Z,12.64
2016-03-04T05:24:08.330Z,12.57
2016-03-04T05:25:08.474Z,12.59
2016-03-04T05:26:08.444Z,12.51
2016-03-04T05:27:08.385Z,12.6
2016-03-04T05:28:08.371Z,12.59
2016-03-04T05:29:08.344Z,12.59
2016-03-04T05:30:08.347Z,12.57
2016-03-04T05:31:08.318Z,12.48
2016-03-04T05:32:08.274Z,12.62
2016-03-04T05:33:08.245Z,12.66
2016-03-04T05:34:08.216Z,12.62
2016-03-04T05:35:08.204Z,12.6
2016-03-04T05:36:08.206Z,12.56
2016-03-04T05:37:08.162Z,12.48
2016-03-04T05:38:08.102Z,12.62
2016-03-04T05:39:08.089Z,12.56
2016-03-04T05:40:08.061Z,12.49
2016-03-04T05:41:08.047Z,12.57
2016-03-04T05:42:08.020Z,12.46
2016-03-04T05:43:08.007Z,12.6
2016-03-04T05:44:07.962Z,12.57
2016-03-04T05:45:07.950Z,12.56
2016-03-04T05:46:07.905Z,12.6
2016-03-04T05:47:07.892Z,12.49
2016-03-04T05:48:07.863Z,12.48
2016-03-04T05:49:07.850Z,12.45
2016-03-04T05:50:07.822Z,12.48
2016-03-04T05:51:07.778Z,12.49
2016-03-04T05:52:07.764Z,12.45
2016-03-04T05:53:07.736Z,12.45
2016-03-04T05:54:07.707Z,12.54
2016-03-04T05:55:07.695Z,12.56
2016-03-04T05:56:07.650Z,12.56
2016-03-04T05:57:08.560Z,12.57
2016-03-04T05:58:07.610Z,12.59
2016-03-04T05:59:07.612Z,12.56
2016-03-04T06:00:07.552Z,12.48
2016-03-04T06:01:07.570Z,12.56
2016-03-04T06:02:07.510Z,12.56
2016-03-04T06:03:07.498Z,12.49
2016-03-04T06:04:07.454Z,12.59
2016-03-04T06:05:07.441Z,12.52
2016-03-04T06:06:07.412Z,12.59
2016-03-04T06:07:07.430Z,12.62
2016-03-04T06:08:07.195Z,12.62
2016-03-04T06:09:07.499Z,12.59
2016-03-04T06:10:07.270Z,12.62
2016-03-04T06:11:07.244Z,12.56
2016-03-04T06:12:07.203Z,12.49
2016-03-04T06:13:07.413Z,12.49
2016-03-04T06:14:07.145Z,12.48
2016-03-04T06:15:06.987Z,12.59
2016-03-04T06:16:07.095Z,12.56
2016-03-04T06:17:07.046Z,12.64
2016-03-04T06:18:07.014Z,12.6
2016-03-04T06:19:07.015Z,12.56
2016-03-04T06:20:06.969Z,12.6
2016-03-04T06:21:06.955Z,12.57
2016-03-04T06:22:06.909Z,12.6
2016-03-04T06:23:06.894Z,12.59
2016-03-04T06:24:06.849Z,12.59
2016-03-04T06:25:06.836Z,12.59
2016-03-04T06:26:06.884Z,12.59
2016-03-04T06:27:06.793Z,12.67
2016-03-04T06:28:06.779Z,12.6
2016-03-04T06:29:06.735Z,12.54
2016-03-04T06:30:06.723Z,12.54
2016-03-04T06:31:06.710Z,12.52
2016-03-04T06:32:06.649Z,12.63
2016-03-04T06:33:06.621Z,12.62
2016-03-04T06:34:06.623Z,12.52
2016-03-04T06:35:06.595Z,12.57
2016-03-04T06:36:06.582Z,12.56
2016-03-04T06:37:06.523Z,12.63
2016-03-04T06:38:06.509Z,12.51
2016-03-04T06:39:06.481Z,12.57
2016-03-04T06:40:06.453Z,12.56
2016-03-04T06:41:06.439Z,12.56
2016-03-04T06:42:06.411Z,12.6
2016-03-04T06:43:06.398Z,12.6
2016-03-04T06:44:06.354Z,12.63
2016-03-04T06:45:06.341Z,12.67
2016-03-04T06:46:06.359Z,12.69
2016-03-04T06:47:06.283Z,12.64
2016-03-04T06:48:06.255Z,12.63
2016-03-04T06:49:06.241Z,12.62
2016-03-04T06:50:06.198Z,12.63
2016-03-04T06:51:06.186Z,12.62
2016-03-04T06:52:06.157Z,12.67
2016-03-04T06:53:06.144Z,12.59
2016-03-04T06:54:06.130Z,12.62
2016-03-04T06:55:06.086Z,12.69
2016-03-04T06:56:06.058Z,12.67
2016-03-04T06:57:06.029Z,12.7
2016-03-04T06:58:06.016Z,12.63
2016-03-04T06:59:05.972Z,12.74
2016-03-04T07:00:05.959Z,12.67
2016-03-04T07:01:06.165Z,12.69
2016-03-04T07:02:05.901Z,12.67
2016-03-04T07:03:05.890Z,12.71
2016-03-04T07:04:05.845Z,12.69
2016-03-04T07:05:05.832Z,12.74
2016-03-04T07:06:05.882Z,12.66
2016-03-04T07:07:05.791Z,12.75
2016-03-04T07:08:05.793Z,12.67
2016-03-04T07:09:05.717Z,12.7
2016-03-04T07:10:05.720Z,12.79
2016-03-04T07:11:05.676Z,12.71
2016-03-04T07:12:05.648Z,12.74
2016-03-04T07:13:05.635Z,12.75
2016-03-04T07:14:05.607Z,12.71
2016-03-04T07:15:05.609Z,12.71
2016-03-04T07:16:05.564Z,12.69
2016-03-04T07:17:05.520Z,12.75
2016-03-04T07:18:05.523Z,12.77
2016-03-04T07:19:04.744Z,12.74
2016-03-04T07:20:05.466Z,12.78
2016-03-04T07:21:05.438Z,12.75
2016-03-04T07:22:05.441Z,12.75
2016-03-04T07:23:05.380Z,12.77
2016-03-04T07:24:05.368Z,12.75
2016-03-04T07:25:05.371Z,12.78
2016-03-04T07:26:05.310Z,12.85
2016-03-04T07:27:05.329Z,12.75
2016-03-04T07:28:05.253Z,12.78
2016-03-04T07:29:05.240Z,12.87
2016-03-04T07:30:05.212Z,12.82
2016-03-04T07:31:05.182Z,12.77
2016-03-04T07:32:05.155Z,12.81
2016-03-04T07:33:05.142Z,12.77
2016-03-04T07:34:05.113Z,12.79
2016-03-04T07:35:05.101Z,12.88
2016-03-04T07:36:05.056Z,12.84
2016-03-04T07:37:05.262Z,12.87
2016-03-04T07:38:04.998Z,12.84
2016-03-04T07:39:04.987Z,12.88
2016-03-04T07:40:04.973Z,12.75
2016-03-04T07:41:04.929Z,12.81
2016-03-04T07:42:04.916Z,12.88
2016-03-04T07:43:04.872Z,12.87
2016-03-04T07:44:04.859Z,12.87
2016-03-04T07:45:04.845Z,12.87
2016-03-04T07:46:04.803Z,12.85
2016-03-04T07:47:04.789Z,12.88
2016-03-04T07:48:04.760Z,12.85
2016-03-04T07:49:04.747Z,12.88
2016-03-04T07:50:04.734Z,12.87
2016-03-04T07:51:04.690Z,12.84
2016-03-04T07:52:04.661Z,12.84
2016-03-04T07:53:04.632Z,12.84
2016-03-04T07:54:04.620Z,12.85
2016-03-04T07:55:04.591Z,12.87
2016-03-04T07:56:04.563Z,12.89
2016-03-04T07:57:04.535Z,12.87
2016-03-04T07:58:04.787Z,12.85
2016-03-04T07:59:04.508Z,12.88
2016-03-04T08:00:04.465Z,12.88
2016-03-04T08:01:04.452Z,12.92
2016-03-04T08:02:04.454Z,12.81
2016-03-04T08:03:04.581Z,13
2016-03-04T08:04:04.397Z,12.96
2016-03-04T08:05:04.353Z,12.89
2016-03-04T08:06:04.309Z,12.85
2016-03-04T08:07:04.296Z,12.88
2016-03-04T08:08:04.267Z,12.89
2016-03-04T08:09:04.239Z,12.93
2016-03-04T08:10:04.084Z,12.99
2016-03-04T08:11:04.213Z,13
2016-03-04T08:12:04.168Z,12.99
2016-03-04T08:13:04.155Z,12.93
2016-03-04T08:14:04.111Z,12.95
2016-03-04T08:15:04.098Z,12.92
2016-03-04T08:16:04.070Z,12.89
2016-03-04T08:17:04.057Z,12.89
2016-03-04T08:18:04.014Z,12.97
2016-03-04T08:19:03.984Z,12.95
2016-03-04T08:20:03.986Z,12.85
2016-03-04T08:21:04.005Z,12.93
2016-03-04T08:22:03.914Z,12.92
2016-03-04T08:23:03.917Z,12.92
2016-03-04T08:24:03.857Z,12.93
2016-03-04T08:25:03.891Z,12.93
2016-03-04T08:26:03.815Z,12.87
2016-03-04T08:27:03.802Z,13
2016-03-04T08:28:03.790Z,13.03
2016-03-04T08:29:03.746Z,12.97
2016-03-04T08:30:03.732Z,12.95
2016-03-04T08:31:03.719Z,12.99
2016-03-04T08:32:03.676Z,12.99
2016-03-04T08:33:03.646Z,12.96
2016-03-04T08:34:03.665Z,13
2016-03-04T08:35:03.605Z,13.07
2016-03-04T08:36:03.561Z,13.07
2016-03-04T08:37:03.564Z,13.02
2016-03-04T08:38:03.520Z,13
2016-03-04T08:39:03.491Z,13.06
2016-03-04T08:40:03.478Z,13.02
2016-03-04T08:41:03.450Z,13.02
2016-03-04T08:42:03.437Z,12.99
2016-03-04T08:43:03.408Z,13.09
2016-03-04T08:44:03.395Z,13.03
2016-03-04T08:45:03.351Z,13.06
2016-03-04T08:46:03.322Z,13.11
2016-03-04T08:47:03.294Z,13.06
2016-03-04T08:48:03.281Z,13.12
2016-03-04T08:49:03.253Z,13.06
2016-03-04T08:50:03.224Z,13.06
2016-03-04T08:51:03.211Z,13.07
2016-03-04T08:52:03.183Z,13.06
2016-03-04T08:53:03.153Z,13.11
2016-03-04T08:54:02.984Z,13.14
2016-03-04T08:55:03.128Z,13.11
2016-03-04T08:56:03.083Z,13.12
2016-03-04T08:57:03.055Z,13.14
2016-03-04T08:58:03.042Z,13.15
2016-03-04T08:59:02.998Z,13.14
2016-03-04T09:00:03.251Z,13.15
2016-03-04T09:01:02.957Z,13.06
2016-03-04T09:02:02.943Z,13.18
2016-03-04T09:03:02.899Z,13.11
2016-03-04T09:04:02.886Z,13.07
2016-03-04T09:05:02.936Z,13.07
2016-03-04T09:06:02.830Z,13.12
2016-03-04T09:07:02.817Z,13.14
2016-03-04T09:08:02.789Z,13.07
2016-03-04T09:09:02.791Z,13.11
2016-03-04T09:10:02.747Z,13.12
2016-03-04T09:11:02.735Z,13.18
2016-03-04T09:12:02.674Z,13.06
2016-03-04T09:13:02.662Z,13.2
2016-03-04T09:14:02.633Z,13.18
2016-03-04T09:15:02.636Z,13.2
2016-03-04T09:16:02.591Z,13.21
2016-03-04T09:17:02.579Z,13.17
2016-03-04T09:18:02.534Z,13.2
2016-03-04T09:19:02.506Z,13.17
2016-03-04T09:20:02.492Z,13.18
2016-03-04T09:21:02.465Z,13.21
2016-03-04T09:22:02.467Z,13.25
2016-03-04T09:23:02.407Z,13.24
2016-03-04T09:24:02.379Z,13.24
2016-03-04T09:25:02.365Z,13.22
2016-03-04T09:26:02.337Z,13.2
2016-03-04T09:27:02.324Z,13.24
2016-03-04T09:28:02.295Z,13.24
2016-03-04T09:29:02.283Z,13.25
2016-03-04T09:30:02.254Z,13.24
2016-03-04T09:31:02.272Z,13.27
2016-03-04T09:32:02.229Z,13.24
2016-03-04T09:33:02.169Z,13.3
2016-03-04T09:34:02.155Z,13.25
2016-03-04T09:35:02.127Z,13.29
2016-03-04T09:36:02.098Z,13.25
2016-03-04T09:37:02.070Z,13.29
2016-03-04T09:38:02.041Z,13.27
2016-03-04T09:39:02.044Z,13.27
2016-03-04T09:40:02.000Z,13.32
2016-03-04T09:41:01.987Z,13.25
2016-03-04T09:42:01.958Z,13.24
2016-03-04T09:43:01.914Z,13.24
2016-03-04T09:44:01.932Z,13.25
2016-03-04T09:45:01.872Z,13.3
2016-03-04T09:46:01.907Z,13.4
2016-03-04T09:47:01.831Z,13.32
2016-03-04T09:48:01.834Z,13.24
2016-03-04T09:49:01.774Z,13.37
2016-03-04T09:50:01.746Z,13.32
2016-03-04T09:51:01.796Z,13.4
2016-03-04T09:52:01.720Z,13.37
2016-03-04T09:53:01.675Z,13.37
2016-03-04T09:54:01.663Z,13.33
2016-03-04T09:55:01.634Z,13.4
2016-03-04T09:56:01.605Z,13.44
2016-03-04T09:57:01.577Z,13.43
2016-03-04T09:58:01.564Z,13.4
2016-03-04T09:59:01.535Z,13.33
2016-03-04T10:00:01.523Z,13.4
2016-03-04T10:01:01.525Z,13.4
2016-03-04T10:02:01.700Z,13.37
2016-03-04T10:03:01.453Z,13.37
2016-03-04T10:04:01.408Z,13.37
2016-03-04T10:05:01.394Z,13.37
2016-03-04T10:06:01.367Z,13.41
2016-03-04T10:07:01.353Z,13.41
2016-03-04T10:08:01.309Z,13.41
2016-03-04T10:09:01.297Z,13.41
2016-03-04T10:10:01.283Z,13.4
2016-03-04T10:11:01.239Z,13.43
2016-03-04T10:12:01.227Z,13.43
2016-03-04T10:13:01.182Z,13.37
2016-03-04T10:14:01.169Z,13.43
2016-03-04T10:15:01.157Z,13.43
2016-03-04T10:16:01.596Z,13.4
2016-03-04T10:17:01.100Z,13.36
2016-03-04T10:18:01.071Z,13.36
2016-03-04T10:19:01.057Z,13.33
2016-03-04T10:20:01.030Z,13.37
2016-03-04T10:21:01.016Z,13.3
2016-03-04T10:22:00.971Z,13.24
2016-03-04T10:23:00.944Z,13.37
2016-03-04T10:24:00.931Z,13.4
2016-03-04T10:25:00.934Z,13.4
2016-03-04T10:26:00.889Z,13.36
2016-03-04T10:27:00.845Z,13.33
2016-03-04T10:28:00.832Z,13.38
2016-03-04T10:29:00.834Z,13.38
2016-03-04T10:30:00.775Z,13.36
2016-03-04T10:31:00.777Z,13.38
2016-03-04T10:32:00.734Z,13.37
2016-03-04T10:33:00.720Z,13.36
2016-03-04T10:34:00.676Z,13.38
2016-03-04T10:35:00.664Z,13.36
2016-03-04T10:36:00.650Z,13.37
2016-03-04T10:37:00.622Z,13.36
2016-03-04T10:38:00.594Z,13.41
2016-03-04T10:39:01.049Z,13.37
2016-03-04T10:40:00.536Z,13.36
2016-03-04T10:41:00.508Z,13.33
2016-03-04T10:42:00.494Z,13.38
2016-03-04T10:43:00.466Z,13.4
2016-03-04T10:44:00.437Z,13.36
2016-03-04T10:45:00.409Z,13.4
2016-03-04T10:46:00.396Z,13.38
2016-03-04T10:47:00.367Z,13.41
2016-03-04T10:48:00.386Z,13.4
2016-03-04T10:49:00.310Z,13.41
2016-03-04T10:50:00.141Z,13.4
2016-03-04T10:51:00.269Z,13.41
2016-03-04T10:52:00.241Z,13.43
2016-03-04T10:53:00.212Z,13.44
2016-03-04T10:54:00.199Z,13.4
2016-03-04T10:55:00.185Z,13.4
2016-03-04T10:56:00.157Z,13.43
2016-03-04T10:57:00.113Z,13.41
2016-03-04T10:58:00.101Z,13.41
2016-03-04T10:59:00.290Z,13.49
2016-03-04T11:00:00.042Z,13.37
2016-03-04T11:01:00.046Z,13.41
2016-03-04T11:02:00.001Z,13.38
2016-03-04T11:03:00.003Z,13.4
2016-03-04T11:03:59.960Z,13.4
2016-03-04T11:04:59.948Z,13.47
2016-03-04T11:05:59.919Z,13.44
2016-03-04T11:06:59.889Z,13.41
2016-03-04T11:07:59.862Z,13.4
2016-03-04T11:08:59.864Z,13.41
2016-03-04T11:09:59.804Z,13.43
2016-03-04T11:10:59.808Z,13.41
2016-03-04T11:11:59.825Z,13.49
2016-03-04T11:12:59.750Z,13.46
2016-03-04T11:13:59.722Z,13.46
2016-03-04T11:14:59.693Z,13.37
2016-03-04T11:15:59.680Z,13.37
2016-03-04T11:16:59.635Z,13.37
2016-03-04T11:17:59.607Z,13.44
2016-03-04T11:18:59.594Z,13.47
2016-03-04T11:19:59.549Z,13.33
2016-03-04T11:20:59.538Z,13.4
2016-03-04T11:21:59.524Z,13.43
2016-03-04T11:22:59.510Z,13.4
2016-03-04T11:23:59.499Z,13.37
2016-03-04T11:24:59.438Z,13.36
2016-03-04T11:25:59.254Z,13.44
2016-03-04T11:26:59.381Z,13.37
2016-03-04T11:27:59.400Z,13.38
2016-03-04T11:28:59.340Z,13.4
2016-03-04T11:29:59.170Z,13.43
2016-03-04T11:30:59.298Z,13.38
2016-03-04T11:31:59.301Z,13.33
2016-03-04T11:32:59.241Z,13.33
2016-03-04T11:33:59.228Z,13.4
2016-03-04T11:34:59.200Z,13.38
2016-03-04T11:35:59.015Z,13.36
2016-03-04T11:36:59.142Z,13.4
2016-03-04T11:37:59.114Z,13.44
2016-03-04T11:38:59.133Z,13.33
2016-03-04T11:39:59.072Z,13.33
2016-03-04T11:40:59.059Z,13.37
2016-03-04T11:41:59.031Z,13.36
2016-03-04T11:42:59.019Z,13.3
2016-03-04T11:43:58.974Z,13.38
2016-03-04T11:44:59.069Z,13.43
2016-03-04T11:45:58.933Z,13.38
2016-03-04T11:46:58.904Z,13.36
2016-03-04T11:47:58.891Z,13.4
2016-03-04T11:48:58.847Z,13.37
2016-03-04T11:49:58.850Z,13.36
2016-03-04T11:50:58.805Z,13.33
2016-03-04T11:51:58.792Z,13.41
2016-03-04T11:52:58.749Z,13.41
2016-03-04T11:53:58.735Z,13.43
2016-03-04T11:54:58.721Z,13.41
2016-03-04T11:55:58.693Z,13.38
2016-03-04T11:56:58.665Z,13.4
2016-03-04T11:57:58.637Z,13.38
2016-03-04T11:58:58.607Z,13.37
2016-03-04T11:59:58.579Z,13.37
2016-03-04T12:00:58.567Z,13.33
2016-03-04T12:01:58.522Z,13.3
2016-03-04T12:02:58.509Z,13.4
2016-03-04T12:03:58.481Z,13.33
2016-03-04T12:04:58.468Z,13.4
2016-03-04T12:05:58.455Z,13.36
2016-03-04T12:06:58.411Z,13.33
2016-03-04T12:07:58.397Z,13.41
2016-03-04T12:08:58.353Z,13.33
2016-03-04T12:09:58.356Z,13.38
2016-03-04T12:10:58.328Z,13.33
2016-03-04T12:11:58.299Z,13.32
2016-03-04T12:12:58.270Z,13.3
2016-03-04T12:13:58.242Z,13.33
2016-03-04T12:14:58.244Z,13.32
2016-03-04T12:15:58.185Z,13.25
2016-03-04T12:16:58.156Z,13.33
2016-03-04T12:17:58.175Z,13.3
2016-03-04T12:18:58.130Z,13.33
2016-03-04T12:19:58.086Z,13.25
2016-03-04T12:20:58.089Z,13.25
2016-03-04T12:21:58.044Z,13.25
2016-03-04T12:22:58.032Z,13.27
2016-03-04T12:23:57.987Z,13.27
2016-03-04T12:24:57.960Z,13.32
2016-03-04T12:25:57.962Z,13.27
2016-03-04T12:26:57.917Z,13.22
2016-03-04T12:27:57.905Z,13.21
2016-03-04T12:28:57.907Z,13.27
2016-03-04T12:29:57.863Z,13.25
2016-03-04T12:30:57.818Z,13.29
2016-03-04T12:31:57.807Z,13.27
2016-03-04T12:32:57.762Z,13.15
2016-03-04T12:33:57.748Z,13.25
2016-03-04T12:34:57.737Z,13.24
2016-03-04T12:35:57.691Z,13.21
2016-03-04T12:36:57.679Z,13.15
2016-03-04T12:37:57.650Z,13.21
2016-03-04T12:38:57.637Z,13.2
2016-03-04T12:39:57.593Z,13.24
2016-03-04T12:40:57.580Z,13.15
2016-03-04T12:41:57.395Z,13.09
2016-03-04T12:42:57.522Z,13.2
2016-03-04T12:43:57.495Z,13.17
2016-03-04T12:44:57.481Z,13.24
2016-03-04T12:45:57.453Z,13.17
2016-03-04T12:46:57.580Z,13.18
2016-03-04T12:47:57.724Z,13.17
2016-03-04T12:48:57.383Z,13.14
2016-03-04T12:49:57.354Z,13.15
2016-03-04T12:50:57.326Z,13.14
2016-03-04T12:51:57.329Z,13.17
2016-03-04T12:52:57.316Z,13.21
2016-03-04T12:53:57.255Z,13.18
2016-03-04T12:54:57.227Z,13.2
2016-03-04T12:55:57.215Z,13.14